Time,TemperatureF,DewpointF,PressureIn,WindDirection,WindDirectionDegrees,WindSpeedMPH,WindSpeedGustMPH,Humidity,HourlyPrecipIn,Conditions,Clouds,dailyrainin,SoftwareType,DateUTC
2013-04-27 00:01:00,51.3,38.0,29.59,SSW,200,2.0,6.0,60,0.00,,,0.00,weatherlink.com 1.10,2013-04-27 04:01:00,
2013-04-27 00:16:00,51.0,38.0,29.59,SSW,195,2.0,6.0,61,0.00,,,0.00,weatherlink.com 1.10,2013-04-27 04:16:00,
2013-04-27 00:31:00,50.9,38.0,29.59,South,186,1.0,6.0,61,0.00,,,0.00,weatherlink.com 1.10,2013-04-27 04:31:00,
2013-04-27 00:46:00,50.9,38.0,29.59,SSE,167,3.0,6.0,62,0.00,,,0.00,weatherlink.com 1.10,2013-04-27 04:46:00,
2013-04-27 01:01:00,50.8,38.0,29.59,SE,127,4.0,5.0,62,0.00,,,0.00,weatherlink.com 1.10,2013-04-27 05:01:00,
2013-04-27 01:16:00,50.8,38.0,29.59,South,188,4.0,12.0,62,0.00,,,0.00,weatherlink.com 1.10,2013-04-27 05:16:00,
2013-04-27 01:31:00,50.8,38.0,29.59,South,172,5.0,8.0,62,0.00,,,0.00,weatherlink.com 1.10,2013-04-27 05:31:00,
2013-04-27 01:47:00,50.5,38.0,29.59,South,186,2.0,9.0,62,0.00,,,0.00,weatherlink.com 1.10,2013-04-27 05:47:00,
2013-04-27 02:02:00,50.3,38.0,29.59,South,181,1.0,6.0,63,0.00,,,0.00,weatherlink.com 1.10,2013-04-27 06:02:00,
2013-04-27 02:17:00,49.9,38.0,29.59,South,177,2.0,6.0,64,0.00,,,0.00,weatherlink.com 1.10,2013-04-27 06:17:00,
2013-04-27 02:32:00,49.7,38.0,29.59,South,188,2.0,5.0,64,0.00,,,0.00,weatherlink.com 1.10,2013-04-27 06:32:00,
2013-04-27 02:47:00,49.7,38.0,29.59,SW,218,3.0,8.0,64,0.00,,,0.00,weatherlink.com 1.10,2013-04-27 06:47:00,
2013-04-27 03:02:00,49.7,38.0,29.59,SSW,194,4.0,8.0,64,0.00,,,0.00,weatherlink.com 1.10,2013-04-27 07:02:00,
2013-04-27 03:17:00,49.5,38.0,29.59,South,190,2.0,7.0,65,0.00,,,0.00,weatherlink.com 1.10,2013-04-27 07:17:00,
2013-04-27 03:32:00,49.0,38.0,29.59,SSE,162,2.0,5.0,66,0.00,,,0.00,weatherlink.com 1.10,2013-04-27 07:32:00,
2013-04-27 03:47:00,48.7,38.0,29.59,SW,229,4.0,7.0,67,0.00,,,0.00,weatherlink.com 1.10,2013-04-27 07:47:00,
2013-04-27 04:02:00,48.5,38.0,29.59,South,181,2.0,6.0,68,0.00,,,0.00,weatherlink.com 1.10,2013-04-27 08:02:00,
2013-04-27 04:17:00,48.3,38.0,29.59,SW,224,6.0,6.0,68,0.00,,,0.00,weatherlink.com 1.10,2013-04-27 08:17:00,
2013-04-27 04:32:00,48.2,38.0,29.59,SSE,167,1.0,7.0,69,0.00,,,0.00,weatherlink.com 1.10,2013-04-27 08:32:00,
2013-04-27 04:47:00,47.5,39.0,29.59,South,179,3.0,4.0,71,0.00,,,0.00,weatherlink.com 1.10,2013-04-27 08:47:00,
2013-04-27 05:02:00,47.5,39.0,29.59,South,177,2.0,6.0,71,0.00,,,0.00,weatherlink.com 1.10,2013-04-27 09:02:00,
2013-04-27 05:17:00,47.4,38.0,29.59,SSW,194,2.0,5.0,71,0.00,,,0.00,weatherlink.com 1.10,2013-04-27 09:17:00,
2013-04-27 05:32:00,47.0,38.0,29.59,SSE,158,1.0,6.0,72,0.00,,,0.00,weatherlink.com 1.10,2013-04-27 09:32:00,
2013-04-27 05:47:00,46.7,38.0,29.59,South,191,2.0,6.0,72,0.00,,,0.00,weatherlink.com 1.10,2013-04-27 09:47:00,
2013-04-27 06:02:00,46.6,38.0,29.59,South,171,1.0,5.0,73,0.00,,,0.00,weatherlink.com 1.10,2013-04-27 10:02:00,
2013-04-27 06:17:00,46.1,38.0,29.59,South,169,0.0,3.0,74,0.00,,,0.00,weatherlink.com 1.10,2013-04-27 10:17:00,
2013-04-27 06:32:00,45.6,38.0,29.59,South,183,0.0,3.0,75,0.00,,,0.00,weatherlink.com 1.10,2013-04-27 10:32:00,
2013-04-27 06:47:00,44.8,38.0,29.59,South,172,0.0,2.0,77,0.00,,,0.00,weatherlink.com 1.10,2013-04-27 10:47:00,
2013-04-27 07:02:00,44.5,38.0,29.59,South,177,0.0,1.0,78,0.00,,,0.00,weatherlink.com 1.10,2013-04-27 11:02:00,
2013-04-27 07:17:00,44.7,38.0,29.60,South,177,0.0,1.0,78,0.00,,,0.00,weatherlink.com 1.10,2013-04-27 11:17:00,
2013-04-27 07:32:00,45.6,38.0,29.59,SSE,147,1.0,3.0,76,0.00,,,0.00,weatherlink.com 1.10,2013-04-27 11:32:00,
2013-04-27 07:47:00,46.6,39.0,29.60,South,174,1.0,3.0,75,0.00,,,0.00,weatherlink.com 1.10,2013-04-27 11:47:00,
2013-04-27 08:02:00,47.7,39.0,29.60,SSE,155,2.0,4.0,73,0.00,,,0.00,weatherlink.com 1.10,2013-04-27 12:02:00,
2013-04-27 08:17:00,48.4,39.0,29.60,SE,136,2.0,6.0,71,0.00,,,0.00,weatherlink.com 1.10,2013-04-27 12:17:00,
2013-04-27 08:32:00,49.7,40.0,29.60,South,177,3.0,5.0,69,0.00,,,0.00,weatherlink.com 1.10,2013-04-27 12:32:00,
2013-04-27 08:47:00,51.1,40.0,29.60,SSW,211,3.0,7.0,66,0.00,,,0.00,weatherlink.com 1.10,2013-04-27 12:47:00,
2013-04-27 09:02:00,52.3,41.0,29.59,WSW,239,3.0,7.0,65,0.00,,,0.00,weatherlink.com 1.10,2013-04-27 13:02:00,
2013-04-27 09:17:00,53.8,41.0,29.59,South,170,3.0,9.0,62,0.00,,,0.00,weatherlink.com 1.10,2013-04-27 13:17:00,
2013-04-27 09:33:00,55.3,42.0,29.59,SSW,211,5.0,10.0,61,0.00,,,0.00,weatherlink.com 1.10,2013-04-27 13:33:00,
2013-04-27 10:03:00,57.6,43.0,29.58,SSW,205,2.0,8.0,58,0.00,,,0.00,weatherlink.com 1.10,2013-04-27 14:03:00,
2013-04-27 10:18:00,59.2,44.0,29.58,SSW,201,4.0,7.0,57,0.00,,,0.00,weatherlink.com 1.10,2013-04-27 14:18:00,
2013-04-27 10:33:00,60.4,44.0,29.57,SW,227,4.0,8.0,55,0.00,,,0.00,weatherlink.com 1.10,2013-04-27 14:33:00,
2013-04-27 10:48:00,61.3,44.0,29.57,SSE,160,7.0,8.0,53,0.00,,,0.00,weatherlink.com 1.10,2013-04-27 14:48:00,
2013-04-27 11:03:00,62.5,45.0,29.57,SW,224,3.0,8.0,53,0.00,,,0.00,weatherlink.com 1.10,2013-04-27 15:03:00,
2013-04-27 11:18:00,62.6,44.0,29.57,South,188,6.0,11.0,51,0.00,,,0.00,weatherlink.com 1.10,2013-04-27 15:18:00,
2013-04-27 11:33:00,63.5,44.0,29.57,SSE,150,5.0,10.0,50,0.00,,,0.00,weatherlink.com 1.10,2013-04-27 15:33:00,
2013-04-27 11:48:00,64.6,45.0,29.57,South,190,9.0,9.0,49,0.00,,,0.00,weatherlink.com 1.10,2013-04-27 15:48:00,
2013-04-27 12:03:00,65.4,44.0,29.56,SE,136,4.0,8.0,47,0.00,,,0.00,weatherlink.com 1.10,2013-04-27 16:03:00,
2013-04-27 12:18:00,65.6,44.0,29.56,SSW,196,4.0,10.0,46,0.00,,,0.00,weatherlink.com 1.10,2013-04-27 16:18:00,
2013-04-27 12:33:00,65.9,44.0,29.55,SSE,155,7.0,11.0,46,0.00,,,0.00,weatherlink.com 1.10,2013-04-27 16:33:00,
2013-04-27 12:48:00,66.7,43.0,29.55,ESE,116,6.0,9.0,43,0.00,,,0.00,weatherlink.com 1.10,2013-04-27 16:48:00,
2013-04-27 13:03:00,67.5,43.0,29.55,WSW,249,4.0,11.0,42,0.00,,,0.00,weatherlink.com 1.10,2013-04-27 17:03:00,
2013-04-27 13:18:00,67.8,42.0,29.54,SW,218,8.0,13.0,39,0.00,,,0.00,weatherlink.com 1.10,2013-04-27 17:18:00,
2013-04-27 13:33:00,68.8,43.0,29.54,South,188,1.0,10.0,40,0.00,,,0.00,weatherlink.com 1.10,2013-04-27 17:33:00,
2013-04-27 13:48:00,68.9,43.0,29.53,WSW,253,4.0,12.0,40,0.00,,,0.00,weatherlink.com 1.10,2013-04-27 17:48:00,
2013-04-27 14:03:00,69.9,44.0,29.52,SSE,160,7.0,12.0,39,0.00,,,0.00,weatherlink.com 1.10,2013-04-27 18:03:00,
2013-04-27 14:18:00,70.1,43.0,29.52,SW,215,4.0,10.0,38,0.00,,,0.00,weatherlink.com 1.10,2013-04-27 18:18:00,
2013-04-27 14:33:00,70.4,41.0,29.52,South,188,9.0,12.0,34,0.00,,,0.00,weatherlink.com 1.10,2013-04-27 18:33:00,
2013-04-27 14:48:00,71.0,43.0,29.52,SSE,158,7.0,11.0,37,0.00,,,0.00,weatherlink.com 1.10,2013-04-27 18:48:00,
2013-04-27 15:03:00,71.2,42.0,29.51,SSW,200,5.0,9.0,35,0.00,,,0.00,weatherlink.com 1.10,2013-04-27 19:03:00,
2013-04-27 15:19:00,72.8,44.0,29.50,SSE,168,4.0,7.0,35,0.00,,,0.00,weatherlink.com 1.10,2013-04-27 19:19:00,
2013-04-27 15:34:00,71.5,42.0,29.50,South,182,4.0,9.0,35,0.00,,,0.00,weatherlink.com 1.10,2013-04-27 19:34:00,
2013-04-27 15:49:00,71.9,41.0,29.49,SSE,153,3.0,10.0,33,0.00,,,0.00,weatherlink.com 1.10,2013-04-27 19:49:00,
2013-04-27 16:04:00,72.1,41.0,29.49,ESE,107,2.0,10.0,33,0.00,,,0.00,weatherlink.com 1.10,2013-04-27 20:04:00,
2013-04-27 16:19:00,72.1,41.0,29.48,South,191,6.0,11.0,33,0.00,,,0.00,weatherlink.com 1.10,2013-04-27 20:19:00,
2013-04-27 16:34:00,72.4,41.0,29.47,South,175,2.0,6.0,32,0.00,,,0.00,weatherlink.com 1.10,2013-04-27 20:34:00,
2013-04-27 16:49:00,71.9,40.0,29.47,SSE,153,2.0,9.0,31,0.00,,,0.00,weatherlink.com 1.10,2013-04-27 20:49:00,
2013-04-27 17:04:00,71.8,39.0,29.46,SSW,197,3.0,11.0,30,0.00,,,0.00,weatherlink.com 1.10,2013-04-27 21:04:00,
2013-04-27 17:19:00,72.1,38.0,29.46,SSW,197,4.0,12.0,29,0.00,,,0.00,weatherlink.com 1.10,2013-04-27 21:19:00,
2013-04-27 17:34:00,72.0,39.0,29.45,SSE,150,3.0,7.0,30,0.00,,,0.00,weatherlink.com 1.10,2013-04-27 21:34:00,
2013-04-27 17:49:00,72.0,38.0,29.45,South,181,4.0,10.0,29,0.00,,,0.00,weatherlink.com 1.10,2013-04-27 21:49:00,
2013-04-27 18:04:00,72.3,37.0,29.45,SSE,163,2.0,8.0,28,0.00,,,0.00,weatherlink.com 1.10,2013-04-27 22:04:00,
2013-04-27 18:19:00,71.6,37.0,29.44,SSE,163,3.0,8.0,28,0.00,,,0.00,weatherlink.com 1.10,2013-04-27 22:19:00,
2013-04-27 18:34:00,71.7,35.0,29.44,SSE,148,3.0,6.0,26,0.00,,,0.00,weatherlink.com 1.10,2013-04-27 22:34:00,
2013-04-27 18:49:00,71.1,35.0,29.43,SW,224,5.0,9.0,27,0.00,,,0.00,weatherlink.com 1.10,2013-04-27 22:49:00,
2013-04-27 19:04:00,70.5,35.0,29.43,South,185,2.0,11.0,27,0.00,,,0.00,weatherlink.com 1.10,2013-04-27 23:04:00,
2013-04-27 19:19:00,70.2,35.0,29.42,South,174,3.0,7.0,28,0.00,,,0.00,weatherlink.com 1.10,2013-04-27 23:19:00,
2013-04-27 19:34:00,69.5,35.0,29.42,SSE,160,2.0,6.0,28,0.00,,,0.00,weatherlink.com 1.10,2013-04-27 23:34:00,
2013-04-27 19:49:00,68.8,36.0,29.41,SSW,203,2.0,6.0,30,0.00,,,0.00,weatherlink.com 1.10,2013-04-27 23:49:00,
2013-04-27 20:04:00,68.1,36.0,29.42,South,170,1.0,4.0,31,0.00,,,0.00,weatherlink.com 1.10,2013-04-28 00:04:00,
2013-04-27 20:19:00,66.8,37.0,29.41,SSE,158,0.0,3.0,33,0.00,,,0.00,weatherlink.com 1.10,2013-04-28 00:19:00,
2013-04-27 20:34:00,65.4,37.0,29.41,SSE,157,1.0,1.0,35,0.00,,,0.00,weatherlink.com 1.10,2013-04-28 00:34:00,
2013-04-27 20:49:00,63.6,37.0,29.42,SSE,156,0.0,1.0,38,0.00,,,0.00,weatherlink.com 1.10,2013-04-28 00:49:00,
2013-04-27 21:04:00,60.9,38.0,29.42,SSE,156,0.0,0.0,43,0.00,,,0.00,weatherlink.com 1.10,2013-04-28 01:04:00,
2013-04-27 21:19:00,59.3,39.0,29.42,SSE,156,0.0,1.0,47,0.00,,,0.00,weatherlink.com 1.10,2013-04-28 01:19:00,
2013-04-27 21:34:00,58.3,40.0,29.42,SSE,157,0.0,0.0,50,0.00,,,0.00,weatherlink.com 1.10,2013-04-28 01:34:00,
2013-04-27 21:49:00,57.0,39.0,29.42,SSE,156,0.0,0.0,52,0.00,,,0.00,weatherlink.com 1.10,2013-04-28 01:49:00,
2013-04-27 22:04:00,56.4,39.0,29.42,SSE,156,0.0,1.0,52,0.00,,,0.00,weatherlink.com 1.10,2013-04-28 02:04:00,
2013-04-27 22:19:00,56.4,38.0,29.42,SSE,156,0.0,1.0,50,0.00,,,0.00,weatherlink.com 1.10,2013-04-28 02:19:00,
2013-04-27 22:34:00,57.6,38.0,29.42,SSE,156,0.0,1.0,48,0.00,,,0.00,weatherlink.com 1.10,2013-04-28 02:34:00,
2013-04-27 22:49:00,55.3,38.0,29.41,SSE,156,0.0,1.0,52,0.00,,,0.00,weatherlink.com 1.10,2013-04-28 02:49:00,
2013-04-27 23:04:00,56.7,36.0,29.41,SSE,148,1.0,2.0,47,0.00,,,0.00,weatherlink.com 1.10,2013-04-28 03:04:00,
2013-04-27 23:19:00,57.5,36.0,29.41,SE,128,0.0,2.0,44,0.00,,,0.00,weatherlink.com 1.10,2013-04-28 03:19:00,
2013-04-27 23:34:00,56.1,35.0,29.41,SE,128,1.0,1.0,46,0.00,,,0.00,weatherlink.com 1.10,2013-04-28 03:34:00,
2013-04-27 23:49:00,55.6,36.0,29.40,SE,128,0.0,1.0,48,0.00,,,0.00,weatherlink.com 1.10,2013-04-28 03:49:00,